• Join FlightAware (Why Join?)
  • Login
  • US Flag 
06:16PM EDT


 

Airport Tracker/Info


-or-


 

Live Flight TrackerFlight Track Log ✈ LXJ541 ✈ 28-Apr-2013 ✈ KTEB - KACK

Flight Track Log - Related Links

Times and Time Zones

All times are in EDT time to prevent confusion due to time zone crossing. See the LXJ541 flight status page for this flight to view local times or setup timezone preferences in your user account.

Time Position Orientation Groundspeed Altitude Reporting Facility
EDT Latitude Longitude Course Direction KTS MPH feet Rate Location/Type
02:24PM 40.8333 -74.1000 57° Northeast 171 197 1,500  Level New York TRACON
02:25PM 40.8167 -74.1667 252° West 222 255 2,900 2,040 Climbing New York TRACON
02:26PM 40.8500 -74.2500 298° West 276 318 5,500 1,500 Climbing New York TRACON
02:27PM 40.9167 -74.2333 11° North 278 320 6,000 240 Climbing New York TRACON
02:28PM 41.0000 -74.2000 17° North 275 316 6,000  Level New York TRACON
02:29PM 41.0667 -74.1667 21° North 275 316 6,000 780 Level New York TRACON
02:30PM 40.8881 -73.9405 57° Northeast  Level FlightAware Approximate
02:30PM 41.1500 -74.1333 17° North 271 312 7,600  Level New York TRACON
02:31PM 41.1833 -74.0500 62° Northeast 289 333 10,400 1,260 Climbing New York TRACON
02:33PM 41.2225 -73.8503 75° East 342 394 11,100 240 Climbing Boston Center
02:34PM 41.2467 -73.7294 75° East 337 388 11,100 -60 Level Boston Center
02:35PM 41.2731 -73.6083 74° East 337 388 11,000 -60 Descending Boston Center
02:36PM 41.2786 -73.4869 86° East 337 388 11,000 60 Level Boston Center
02:37PM 41.2525 -73.3733 107° East 309 356 11,200 900 Climbing Boston Center
02:38PM 41.1989 -73.2953 132° Southeast 309 356 12,900 2,220 Climbing Boston Center
02:39PM 41.1914 -73.1711 95° East 316 364 15,700 2,040 Climbing Boston Center
02:40PM 41.2192 -73.0389 74° East 321 369 17,000 660 Climbing Boston Center
02:41PM 41.2344 -72.9067 81° East 349 402 17,100  Climbing Boston Center
02:42PM 41.2494 -72.7769 81° East 354 407 17,000 -60 Descending Boston Center
02:43PM 41.2644 -72.6444 81° East 354 407 17,000  Level Boston Center
02:44PM 41.2792 -72.5064 82° East 349 402 17,000  Level Boston Center
02:45PM 41.2936 -72.3739 82° East 349 402 17,000  Level Boston Center
02:46PM 41.3122 -72.2439 79° East 349 402 17,100  Climbing Boston Center
02:47PM 41.3247 -72.1250 82° East 349 402 17,100  Level Boston Center
02:48PM 41.3367 -71.9811 84° East 354 407 17,100 -60 Level Boston Center
02:49PM 41.3422 -71.8236 87° East 349 402 17,000 -60 Descending Boston Center
02:50PM 41.3478 -71.7183 86° East 349 402 17,000  Level Boston Center
02:51PM 41.3550 -71.5581 87° East 355 409 17,000 -420 Level Boston Center
02:52PM 41.3558 -71.4253 89° East 355 409 16,200 -1,020 Descending Boston Center
02:53PM 41.3089 -71.3097 118° Southeast 340 391 15,000 -1,020 Descending Boston Center
02:54PM 41.2639 -71.1975 118° Southeast 347 399 14,200 -960 Descending Boston Center
02:55PM 41.2169 -71.0825 118° Southeast 354 407 13,100 -1,080 Descending Boston Center
02:56PM 41.1697 -70.9731 120° Southeast 349 402 12,100 -1,260 Descending Boston Center
02:57PM 41.1494 -70.8633 104° East 321 369 10,600 -1,560 Descending Boston Center
02:58PM 41.1394 -70.7533 97° East 306 352 9,000 -1,740 Descending Boston Center
02:59PM 41.1275 -70.6517 99° East 293 337 7,200 -1,620 Descending Boston Center
03:00PM 41.1194 -70.5528 96° East 282 325 5,800 -1,140 Descending Boston Center
03:01PM 41.1117 -70.4511 96° East 276 318 5,000 -780 Descending Boston Center
03:02PM 41.1203 -70.3542 83° East 265 305 4,300 -900 Descending Boston Center
03:03PM 41.1372 -70.2628 76° East 265 305 3,300 -660 Descending Boston Center
03:04PM 41.1564 -70.1767 74° East 250 288 3,000 -180 Descending Boston Center
03:05PM 41.1736 -70.1042 72° East 221 254 3,000  Level Boston Center
03:06PM 41.2142 -70.0531 43° Northeast 200 230 3,000  Level Boston Center
03:07PM 41.2547 -69.9992 45° Northeast 200 230 3,000 -180 Level Boston Center
03:08PM 41.2981 -69.9756 22° Northeast 171 197 2,700 -900 Descending Boston Center
03:09PM 41.2867 -70.0256 253° West 63 72 1,200 -1,140 Descending Boston Center
03:10PM 41.2725 -70.0511 234° Southwest 63 72 500 4,860 Descending Boston Center
03:11PM 41.2689 -70.0706 256° West 63 72 11,000 5,220 Climbing Boston Center
03:12PM 41.2631 -70.0928 251° West 63 72 11,000  Level Boston Center
03:14PM 41.2531 -70.0603 45° Northeast  Level Estimated
03:21PM 41.2531 -70.0603 242° Southwest  Level Estimated
03:22PM 41.2531 -70.0603 242° Southwest  Level Estimated